sensor_id;sensor_type;location;lat;lon;timestamp;P1;durP1;ratioP1;P2;durP2;ratioP2
38162;SDS011;23977;53.078;18.248;2023-07-31T00:00:25;3.70;;;2.38;;
38162;SDS011;23977;53.078;18.248;2023-07-31T00:03:10;4.38;;;2.20;;
38162;SDS011;23977;53.078;18.248;2023-07-31T00:05:36;4.28;;;2.38;;
38162;SDS011;23977;53.078;18.248;2023-07-31T00:08:02;5.50;;;2.50;;
38162;SDS011;23977;53.078;18.248;2023-07-31T00:10:27;4.85;;;2.22;;
38162;SDS011;23977;53.078;18.248;2023-07-31T00:12:53;4.65;;;2.20;;
38162;SDS011;23977;53.078;18.248;2023-07-31T00:15:19;4.45;;;2.63;;
38162;SDS011;23977;53.078;18.248;2023-07-31T00:17:44;4.85;;;2.60;;
38162;SDS011;23977;53.078;18.248;2023-07-31T00:20:10;4.68;;;2.47;;
38162;SDS011;23977;53.078;18.248;2023-07-31T00:22:36;8.00;;;2.83;;
38162;SDS011;23977;53.078;18.248;2023-07-31T00:25:01;4.60;;;2.80;;
38162;SDS011;23977;53.078;18.248;2023-07-31T00:27:27;4.55;;;2.67;;
38162;SDS011;23977;53.078;18.248;2023-07-31T00:29:53;4.38;;;2.63;;
38162;SDS011;23977;53.078;18.248;2023-07-31T00:32:18;5.05;;;2.30;;
38162;SDS011;23977;53.078;18.248;2023-07-31T00:34:44;4.70;;;2.83;;
38162;SDS011;23977;53.078;18.248;2023-07-31T00:37:10;4.53;;;2.60;;
38162;SDS011;23977;53.078;18.248;2023-07-31T00:39:35;4.88;;;2.53;;
38162;SDS011;23977;53.078;18.248;2023-07-31T00:42:01;5.28;;;2.40;;
38162;SDS011;23977;53.078;18.248;2023-07-31T00:44:27;4.60;;;2.20;;
38162;SDS011;23977;53.078;18.248;2023-07-31T00:46:53;5.00;;;2.50;;
38162;SDS011;23977;53.078;18.248;2023-07-31T00:49:19;4.25;;;2.40;;
38162;SDS011;23977;53.078;18.248;2023-07-31T00:51:46;5.35;;;2.38;;
38162;SDS011;23977;53.078;18.248;2023-07-31T00:54:11;3.88;;;2.50;;
38162;SDS011;23977;53.078;18.248;2023-07-31T00:56:37;3.78;;;2.60;;
38162;SDS011;23977;53.078;18.248;2023-07-31T00:59:03;6.35;;;2.97;;
38162;SDS011;23977;53.078;18.248;2023-07-31T01:01:28;4.03;;;2.60;;
38162;SDS011;23977;53.078;18.248;2023-07-31T01:03:54;4.53;;;2.58;;
38162;SDS011;23977;53.078;18.248;2023-07-31T01:06:24;7.00;;;2.72;;
38162;SDS011;23977;53.078;18.248;2023-07-31T01:11:43;4.32;;;2.58;;
38162;SDS011;23977;53.078;18.248;2023-07-31T01:14:13;5.82;;;2.78;;
38162;SDS011;23977;53.078;18.248;2023-07-31T01:16:39;6.07;;;2.78;;
38162;SDS011;23977;53.078;18.248;2023-07-31T01:19:05;5.18;;;2.92;;
38162;SDS011;23977;53.078;18.248;2023-07-31T01:26:45;6.25;;;3.00;;
38162;SDS011;23977;53.078;18.248;2023-07-31T01:29:20;5.60;;;3.08;;
38162;SDS011;23977;53.078;18.248;2023-07-31T01:31:56;4.22;;;2.88;;
38162;SDS011;23977;53.078;18.248;2023-07-31T01:34:26;5.43;;;3.00;;
38162;SDS011;23977;53.078;18.248;2023-07-31T01:36:52;4.97;;;2.80;;
38162;SDS011;23977;53.078;18.248;2023-07-31T01:39:19;5.95;;;3.13;;
38162;SDS011;23977;53.078;18.248;2023-07-31T01:41:46;5.45;;;2.72;;
38162;SDS011;23977;53.078;18.248;2023-07-31T01:44:11;7.78;;;3.20;;
38162;SDS011;23977;53.078;18.248;2023-07-31T01:46:37;5.50;;;3.10;;
38162;SDS011;23977;53.078;18.248;2023-07-31T01:49:02;4.43;;;2.90;;
38162;SDS011;23977;53.078;18.248;2023-07-31T01:51:31;4.55;;;3.00;;
38162;SDS011;23977;53.078;18.248;2023-07-31T01:53:59;6.05;;;3.10;;
38162;SDS011;23977;53.078;18.248;2023-07-31T01:56:26;5.78;;;3.30;;
38162;SDS011;23977;53.078;18.248;2023-07-31T01:58:51;6.03;;;3.00;;
38162;SDS011;23977;53.078;18.248;2023-07-31T02:01:17;5.63;;;3.00;;
38162;SDS011;23977;53.078;18.248;2023-07-31T02:03:42;5.00;;;2.90;;
38162;SDS011;23977;53.078;18.248;2023-07-31T02:06:08;6.10;;;3.17;;
38162;SDS011;23977;53.078;18.248;2023-07-31T02:08:33;6.65;;;3.08;;
38162;SDS011;23977;53.078;18.248;2023-07-31T02:10:59;4.75;;;3.20;;
38162;SDS011;23977;53.078;18.248;2023-07-31T02:13:25;5.47;;;3.13;;
38162;SDS011;23977;53.078;18.248;2023-07-31T02:15:51;5.35;;;3.05;;
38162;SDS011;23977;53.078;18.248;2023-07-31T02:18:16;7.00;;;3.08;;
38162;SDS011;23977;53.078;18.248;2023-07-31T02:20:42;4.32;;;3.10;;
38162;SDS011;23977;53.078;18.248;2023-07-31T02:23:08;5.47;;;3.30;;
38162;SDS011;23977;53.078;18.248;2023-07-31T02:25:34;4.82;;;3.10;;
38162;SDS011;23977;53.078;18.248;2023-07-31T02:27:59;4.75;;;3.22;;
38162;SDS011;23977;53.078;18.248;2023-07-31T02:30:25;5.63;;;3.40;;
38162;SDS011;23977;53.078;18.248;2023-07-31T02:32:50;5.43;;;3.60;;
38162;SDS011;23977;53.078;18.248;2023-07-31T02:35:16;5.07;;;3.30;;
38162;SDS011;23977;53.078;18.248;2023-07-31T02:37:43;5.13;;;3.42;;
38162;SDS011;23977;53.078;18.248;2023-07-31T02:40:09;7.05;;;3.67;;
38162;SDS011;23977;53.078;18.248;2023-07-31T02:42:35;4.97;;;3.22;;
38162;SDS011;23977;53.078;18.248;2023-07-31T02:45:01;6.22;;;3.28;;
38162;SDS011;23977;53.078;18.248;2023-07-31T02:47:26;5.75;;;3.50;;
38162;SDS011;23977;53.078;18.248;2023-07-31T02:49:52;5.80;;;3.38;;
38162;SDS011;23977;53.078;18.248;2023-07-31T02:52:17;5.03;;;3.50;;
38162;SDS011;23977;53.078;18.248;2023-07-31T02:54:43;6.35;;;3.58;;
38162;SDS011;23977;53.078;18.248;2023-07-31T02:57:09;6.22;;;3.40;;
38162;SDS011;23977;53.078;18.248;2023-07-31T02:59:34;7.90;;;3.65;;
38162;SDS011;23977;53.078;18.248;2023-07-31T03:02:00;6.18;;;3.70;;
38162;SDS011;23977;53.078;18.248;2023-07-31T03:04:26;5.63;;;3.65;;
38162;SDS011;23977;53.078;18.248;2023-07-31T03:06:51;5.30;;;3.38;;
38162;SDS011;23977;53.078;18.248;2023-07-31T03:09:17;5.45;;;3.70;;
38162;SDS011;23977;53.078;18.248;2023-07-31T03:11:42;7.75;;;3.67;;
38162;SDS011;23977;53.078;18.248;2023-07-31T03:14:08;5.22;;;3.58;;
38162;SDS011;23977;53.078;18.248;2023-07-31T03:16:33;6.55;;;3.83;;
38162;SDS011;23977;53.078;18.248;2023-07-31T03:18:59;5.88;;;3.97;;
38162;SDS011;23977;53.078;18.248;2023-07-31T03:21:25;8.48;;;4.15;;
38162;SDS011;23977;53.078;18.248;2023-07-31T03:23:50;6.22;;;4.18;;
38162;SDS011;23977;53.078;18.248;2023-07-31T03:26:16;5.90;;;3.78;;
38162;SDS011;23977;53.078;18.248;2023-07-31T03:28:41;6.78;;;4.20;;
38162;SDS011;23977;53.078;18.248;2023-07-31T03:31:07;5.82;;;3.30;;
38162;SDS011;23977;53.078;18.248;2023-07-31T03:33:33;6.47;;;3.33;;
38162;SDS011;23977;53.078;18.248;2023-07-31T03:35:59;4.97;;;3.22;;
38162;SDS011;23977;53.078;18.248;2023-07-31T03:38:24;7.47;;;3.13;;
38162;SDS011;23977;53.078;18.248;2023-07-31T03:40:50;7.05;;;2.92;;
38162;SDS011;23977;53.078;18.248;2023-07-31T03:43:16;5.75;;;2.40;;
38162;SDS011;23977;53.078;18.248;2023-07-31T03:45:41;4.22;;;2.40;;
38162;SDS011;23977;53.078;18.248;2023-07-31T03:48:07;5.18;;;2.72;;
38162;SDS011;23977;53.078;18.248;2023-07-31T03:50:33;4.70;;;2.50;;
38162;SDS011;23977;53.078;18.248;2023-07-31T03:52:58;4.30;;;2.20;;
38162;SDS011;23977;53.078;18.248;2023-07-31T03:55:24;4.15;;;2.15;;
38162;SDS011;23977;53.078;18.248;2023-07-31T03:57:50;5.20;;;2.20;;
38162;SDS011;23977;53.078;18.248;2023-07-31T04:00:15;3.88;;;2.28;;
38162;SDS011;23977;53.078;18.248;2023-07-31T04:02:41;4.30;;;2.33;;
38162;SDS011;23977;53.078;18.248;2023-07-31T04:05:07;6.57;;;2.40;;
38162;SDS011;23977;53.078;18.248;2023-07-31T04:07:33;6.15;;;2.15;;
38162;SDS011;23977;53.078;18.248;2023-07-31T04:09:59;4.32;;;2.20;;
38162;SDS011;23977;53.078;18.248;2023-07-31T04:12:25;4.40;;;1.88;;
38162;SDS011;23977;53.078;18.248;2023-07-31T04:14:51;5.57;;;2.25;;
38162;SDS011;23977;53.078;18.248;2023-07-31T04:17:19;4.45;;;2.00;;
38162;SDS011;23977;53.078;18.248;2023-07-31T04:19:45;5.93;;;2.08;;
38162;SDS011;23977;53.078;18.248;2023-07-31T04:22:10;4.45;;;2.05;;
38162;SDS011;23977;53.078;18.248;2023-07-31T04:24:36;5.53;;;2.10;;
38162;SDS011;23977;53.078;18.248;2023-07-31T04:27:01;4.30;;;2.10;;
38162;SDS011;23977;53.078;18.248;2023-07-31T04:29:27;4.85;;;2.25;;
38162;SDS011;23977;53.078;18.248;2023-07-31T04:31:53;5.63;;;2.40;;
38162;SDS011;23977;53.078;18.248;2023-07-31T04:34:18;5.40;;;2.28;;
38162;SDS011;23977;53.078;18.248;2023-07-31T04:36:44;7.22;;;2.38;;
38162;SDS011;23977;53.078;18.248;2023-07-31T04:39:09;4.55;;;2.10;;
38162;SDS011;23977;53.078;18.248;2023-07-31T04:41:35;4.95;;;2.40;;
38162;SDS011;23977;53.078;18.248;2023-07-31T04:44:01;6.15;;;2.30;;
38162;SDS011;23977;53.078;18.248;2023-07-31T04:46:27;5.05;;;1.95;;
38162;SDS011;23977;53.078;18.248;2023-07-31T04:48:52;6.53;;;2.00;;
38162;SDS011;23977;53.078;18.248;2023-07-31T04:51:18;3.67;;;1.80;;
38162;SDS011;23977;53.078;18.248;2023-07-31T04:53:43;3.92;;;1.70;;
38162;SDS011;23977;53.078;18.248;2023-07-31T04:56:09;3.50;;;1.50;;
38162;SDS011;23977;53.078;18.248;2023-07-31T04:58:34;4.68;;;1.60;;
38162;SDS011;23977;53.078;18.248;2023-07-31T05:01:00;3.95;;;1.60;;
38162;SDS011;23977;53.078;18.248;2023-07-31T05:03:26;5.53;;;1.63;;
38162;SDS011;23977;53.078;18.248;2023-07-31T05:05:51;3.75;;;1.75;;
38162;SDS011;23977;53.078;18.248;2023-07-31T05:08:17;3.15;;;1.40;;
38162;SDS011;23977;53.078;18.248;2023-07-31T05:10:45;4.05;;;1.50;;
38162;SDS011;23977;53.078;18.248;2023-07-31T05:13:10;3.83;;;1.45;;
38162;SDS011;23977;53.078;18.248;2023-07-31T05:15:36;3.55;;;1.38;;
38162;SDS011;23977;53.078;18.248;2023-07-31T05:18:02;3.00;;;1.25;;
38162;SDS011;23977;53.078;18.248;2023-07-31T05:20:27;3.92;;;1.25;;
38162;SDS011;23977;53.078;18.248;2023-07-31T05:22:53;4.88;;;1.40;;
38162;SDS011;23977;53.078;18.248;2023-07-31T05:25:19;4.97;;;1.38;;
38162;SDS011;23977;53.078;18.248;2023-07-31T05:27:44;3.83;;;1.25;;
38162;SDS011;23977;53.078;18.248;2023-07-31T05:30:10;4.78;;;1.70;;
38162;SDS011;23977;53.078;18.248;2023-07-31T05:32:36;2.55;;;1.25;;
38162;SDS011;23977;53.078;18.248;2023-07-31T05:35:02;4.93;;;1.50;;
38162;SDS011;23977;53.078;18.248;2023-07-31T05:37:27;4.15;;;1.40;;
38162;SDS011;23977;53.078;18.248;2023-07-31T05:39:53;3.20;;;1.40;;
38162;SDS011;23977;53.078;18.248;2023-07-31T05:42:18;4.65;;;1.50;;
38162;SDS011;23977;53.078;18.248;2023-07-31T05:44:44;3.55;;;1.25;;
38162;SDS011;23977;53.078;18.248;2023-07-31T05:47:10;4.40;;;1.30;;
38162;SDS011;23977;53.078;18.248;2023-07-31T05:49:36;3.90;;;1.30;;
38162;SDS011;23977;53.078;18.248;2023-07-31T05:52:01;4.55;;;1.50;;
38162;SDS011;23977;53.078;18.248;2023-07-31T05:54:27;2.25;;;0.95;;
38162;SDS011;23977;53.078;18.248;2023-07-31T05:56:53;4.32;;;1.30;;
38162;SDS011;23977;53.078;18.248;2023-07-31T05:59:18;5.22;;;1.40;;
38162;SDS011;23977;53.078;18.248;2023-07-31T06:01:44;3.58;;;1.30;;
38162;SDS011;23977;53.078;18.248;2023-07-31T06:04:09;3.97;;;1.30;;
38162;SDS011;23977;53.078;18.248;2023-07-31T06:06:35;3.40;;;1.30;;
38162;SDS011;23977;53.078;18.248;2023-07-31T06:09:01;3.67;;;1.40;;
38162;SDS011;23977;53.078;18.248;2023-07-31T06:11:26;3.35;;;1.23;;
38162;SDS011;23977;53.078;18.248;2023-07-31T06:13:52;5.38;;;1.38;;
38162;SDS011;23977;53.078;18.248;2023-07-31T06:16:18;2.75;;;1.10;;
38162;SDS011;23977;53.078;18.248;2023-07-31T06:18:43;4.68;;;1.30;;
38162;SDS011;23977;53.078;18.248;2023-07-31T06:21:09;2.90;;;1.20;;
38162;SDS011;23977;53.078;18.248;2023-07-31T06:23:36;4.70;;;1.15;;
38162;SDS011;23977;53.078;18.248;2023-07-31T06:26:01;4.68;;;1.60;;
38162;SDS011;23977;53.078;18.248;2023-07-31T06:28:28;3.20;;;1.30;;
38162;SDS011;23977;53.078;18.248;2023-07-31T06:31:00;3.17;;;1.10;;
38162;SDS011;23977;53.078;18.248;2023-07-31T06:33:26;3.42;;;1.33;;
38162;SDS011;23977;53.078;18.248;2023-07-31T06:35:52;6.75;;;1.33;;
38162;SDS011;23977;53.078;18.248;2023-07-31T06:38:22;3.28;;;1.30;;
38162;SDS011;23977;53.078;18.248;2023-07-31T06:40:49;4.75;;;1.17;;
38162;SDS011;23977;53.078;18.248;2023-07-31T06:43:15;3.63;;;1.30;;
38162;SDS011;23977;53.078;18.248;2023-07-31T06:45:41;4.90;;;1.20;;
38162;SDS011;23977;53.078;18.248;2023-07-31T06:48:06;3.10;;;1.05;;
38162;SDS011;23977;53.078;18.248;2023-07-31T06:50:33;3.33;;;1.30;;
38162;SDS011;23977;53.078;18.248;2023-07-31T06:52:59;3.78;;;1.20;;
38162;SDS011;23977;53.078;18.248;2023-07-31T06:55:25;3.40;;;1.27;;
38162;SDS011;23977;53.078;18.248;2023-07-31T06:57:52;4.65;;;1.40;;
38162;SDS011;23977;53.078;18.248;2023-07-31T07:00:19;3.20;;;1.10;;
38162;SDS011;23977;53.078;18.248;2023-07-31T07:02:46;4.30;;;1.25;;
38162;SDS011;23977;53.078;18.248;2023-07-31T07:05:17;3.53;;;1.30;;
38162;SDS011;23977;53.078;18.248;2023-07-31T07:07:43;2.63;;;1.00;;
38162;SDS011;23977;53.078;18.248;2023-07-31T07:10:09;4.45;;;1.50;;
38162;SDS011;23977;53.078;18.248;2023-07-31T07:12:36;3.50;;;1.35;;
38162;SDS011;23977;53.078;18.248;2023-07-31T07:15:01;3.72;;;1.25;;
38162;SDS011;23977;53.078;18.248;2023-07-31T07:17:29;4.28;;;1.20;;
38162;SDS011;23977;53.078;18.248;2023-07-31T07:19:59;4.65;;;1.50;;
38162;SDS011;23977;53.078;18.248;2023-07-31T07:22:25;3.65;;;1.40;;
38162;SDS011;23977;53.078;18.248;2023-07-31T07:24:52;3.30;;;1.20;;
38162;SDS011;23977;53.078;18.248;2023-07-31T07:27:18;3.55;;;1.45;;
38162;SDS011;23977;53.078;18.248;2023-07-31T07:29:43;3.15;;;1.45;;
38162;SDS011;23977;53.078;18.248;2023-07-31T07:32:09;2.70;;;1.20;;
38162;SDS011;23977;53.078;18.248;2023-07-31T07:34:34;3.50;;;1.48;;
38162;SDS011;23977;53.078;18.248;2023-07-31T07:37:00;3.50;;;1.40;;
38162;SDS011;23977;53.078;18.248;2023-07-31T07:39:26;4.03;;;1.30;;
38162;SDS011;23977;53.078;18.248;2023-07-31T07:41:51;3.95;;;1.35;;
38162;SDS011;23977;53.078;18.248;2023-07-31T07:44:18;3.42;;;1.20;;
38162;SDS011;23977;53.078;18.248;2023-07-31T07:46:44;3.53;;;1.20;;
38162;SDS011;23977;53.078;18.248;2023-07-31T07:49:09;3.80;;;1.30;;
38162;SDS011;23977;53.078;18.248;2023-07-31T07:51:35;4.28;;;1.30;;
38162;SDS011;23977;53.078;18.248;2023-07-31T07:54:01;4.28;;;1.30;;
38162;SDS011;23977;53.078;18.248;2023-07-31T07:56:26;3.97;;;1.23;;
38162;SDS011;23977;53.078;18.248;2023-07-31T07:58:52;4.85;;;1.25;;
38162;SDS011;23977;53.078;18.248;2023-07-31T08:01:19;3.08;;;1.27;;
38162;SDS011;23977;53.078;18.248;2023-07-31T08:03:44;5.10;;;1.30;;
38162;SDS011;23977;53.078;18.248;2023-07-31T08:06:10;4.07;;;1.23;;
38162;SDS011;23977;53.078;18.248;2023-07-31T08:08:36;2.95;;;1.00;;
38162;SDS011;23977;53.078;18.248;2023-07-31T08:11:02;3.70;;;1.00;;
38162;SDS011;23977;53.078;18.248;2023-07-31T08:13:28;3.92;;;1.23;;
38162;SDS011;23977;53.078;18.248;2023-07-31T08:15:53;3.25;;;1.17;;
38162;SDS011;23977;53.078;18.248;2023-07-31T08:18:19;4.15;;;1.27;;
38162;SDS011;23977;53.078;18.248;2023-07-31T08:20:45;2.90;;;1.20;;
38162;SDS011;23977;53.078;18.248;2023-07-31T08:23:11;4.80;;;1.65;;
38162;SDS011;23977;53.078;18.248;2023-07-31T08:25:36;3.78;;;1.50;;
38162;SDS011;23977;53.078;18.248;2023-07-31T08:28:02;2.97;;;1.10;;
38162;SDS011;23977;53.078;18.248;2023-07-31T08:30:29;4.00;;;1.30;;
38162;SDS011;23977;53.078;18.248;2023-07-31T08:32:55;5.00;;;1.40;;
38162;SDS011;23977;53.078;18.248;2023-07-31T08:35:21;3.50;;;1.20;;
38162;SDS011;23977;53.078;18.248;2023-07-31T08:37:46;3.80;;;1.85;;
38162;SDS011;23977;53.078;18.248;2023-07-31T08:40:12;4.55;;;1.40;;
38162;SDS011;23977;53.078;18.248;2023-07-31T08:42:57;3.53;;;1.40;;
38162;SDS011;23977;53.078;18.248;2023-07-31T08:45:27;4.30;;;1.77;;
38162;SDS011;23977;53.078;18.248;2023-07-31T08:47:53;4.57;;;1.17;;
38162;SDS011;23977;53.078;18.248;2023-07-31T08:50:20;4.35;;;1.20;;
38162;SDS011;23977;53.078;18.248;2023-07-31T08:52:48;4.78;;;1.60;;
38162;SDS011;23977;53.078;18.248;2023-07-31T08:55:16;5.25;;;1.20;;
38162;SDS011;23977;53.078;18.248;2023-07-31T08:57:42;3.85;;;1.10;;
38162;SDS011;23977;53.078;18.248;2023-07-31T09:00:09;3.25;;;1.20;;
38162;SDS011;23977;53.078;18.248;2023-07-31T09:02:45;8.25;;;1.60;;
38162;SDS011;23977;53.078;18.248;2023-07-31T09:05:26;2.90;;;0.98;;
38162;SDS011;23977;53.078;18.248;2023-07-31T09:07:53;4.07;;;1.20;;
38162;SDS011;23977;53.078;18.248;2023-07-31T09:10:21;5.55;;;1.10;;
38162;SDS011;23977;53.078;18.248;2023-07-31T09:12:46;2.90;;;1.20;;
38162;SDS011;23977;53.078;18.248;2023-07-31T09:15:14;3.47;;;1.30;;
38162;SDS011;23977;53.078;18.248;2023-07-31T09:17:39;3.40;;;1.10;;
38162;SDS011;23977;53.078;18.248;2023-07-31T09:20:15;4.75;;;1.20;;
38162;SDS011;23977;53.078;18.248;2023-07-31T09:22:42;3.53;;;1.00;;
38162;SDS011;23977;53.078;18.248;2023-07-31T09:25:16;3.85;;;1.20;;
38162;SDS011;23977;53.078;18.248;2023-07-31T09:27:49;4.07;;;1.23;;
38162;SDS011;23977;53.078;18.248;2023-07-31T09:30:25;3.40;;;1.27;;
38162;SDS011;23977;53.078;18.248;2023-07-31T09:32:52;3.58;;;1.30;;
38162;SDS011;23977;53.078;18.248;2023-07-31T09:35:32;4.38;;;1.27;;
38162;SDS011;23977;53.078;18.248;2023-07-31T09:38:06;4.50;;;1.35;;
38162;SDS011;23977;53.078;18.248;2023-07-31T09:40:38;4.82;;;1.30;;
38162;SDS011;23977;53.078;18.248;2023-07-31T09:43:05;4.28;;;1.30;;
38162;SDS011;23977;53.078;18.248;2023-07-31T09:45:37;4.00;;;1.20;;
38162;SDS011;23977;53.078;18.248;2023-07-31T09:48:08;3.47;;;1.10;;
38162;SDS011;23977;53.078;18.248;2023-07-31T09:50:39;4.05;;;1.20;;
38162;SDS011;23977;53.078;18.248;2023-07-31T09:53:05;4.90;;;1.40;;
38162;SDS011;23977;53.078;18.248;2023-07-31T09:55:32;5.75;;;1.40;;
38162;SDS011;23977;53.078;18.248;2023-07-31T09:57:58;4.57;;;1.40;;
38162;SDS011;23977;53.078;18.248;2023-07-31T10:00:24;5.53;;;1.67;;
38162;SDS011;23977;53.078;18.248;2023-07-31T10:02:53;5.97;;;1.40;;
38162;SDS011;23977;53.078;18.248;2023-07-31T10:05:20;3.95;;;1.48;;
38162;SDS011;23977;53.078;18.248;2023-07-31T10:07:55;8.25;;;1.98;;
38162;SDS011;23977;53.078;18.248;2023-07-31T10:10:23;3.75;;;1.20;;
38162;SDS011;23977;53.078;18.248;2023-07-31T10:12:50;6.93;;;1.70;;
38162;SDS011;23977;53.078;18.248;2023-07-31T10:15:18;7.60;;;1.90;;
38162;SDS011;23977;53.078;18.248;2023-07-31T10:17:48;6.65;;;2.08;;
38162;SDS011;23977;53.078;18.248;2023-07-31T10:20:16;5.95;;;1.98;;
38162;SDS011;23977;53.078;18.248;2023-07-31T10:22:42;4.80;;;1.80;;
38162;SDS011;23977;53.078;18.248;2023-07-31T10:25:09;6.03;;;2.00;;
38162;SDS011;23977;53.078;18.248;2023-07-31T10:27:35;8.88;;;2.10;;
38162;SDS011;23977;53.078;18.248;2023-07-31T10:30:03;6.70;;;2.00;;
38162;SDS011;23977;53.078;18.248;2023-07-31T10:32:33;5.28;;;1.83;;
38162;SDS011;23977;53.078;18.248;2023-07-31T10:35:01;6.25;;;2.25;;
38162;SDS011;23977;53.078;18.248;2023-07-31T10:37:29;4.85;;;2.00;;
38162;SDS011;23977;53.078;18.248;2023-07-31T10:40:04;5.05;;;2.20;;
38162;SDS011;23977;53.078;18.248;2023-07-31T10:42:51;5.82;;;2.30;;
38162;SDS011;23977;53.078;18.248;2023-07-31T10:45:25;4.70;;;2.00;;
38162;SDS011;23977;53.078;18.248;2023-07-31T10:48:02;5.40;;;2.03;;
38162;SDS011;23977;53.078;18.248;2023-07-31T10:50:33;3.95;;;1.80;;
38162;SDS011;23977;53.078;18.248;2023-07-31T10:53:03;3.90;;;1.77;;
38162;SDS011;23977;53.078;18.248;2023-07-31T10:55:33;7.35;;;1.90;;
38162;SDS011;23977;53.078;18.248;2023-07-31T10:58:11;6.35;;;1.92;;
38162;SDS011;23977;53.078;18.248;2023-07-31T11:00:39;7.78;;;1.70;;
38162;SDS011;23977;53.078;18.248;2023-07-31T11:03:06;4.07;;;1.60;;
38162;SDS011;23977;53.078;18.248;2023-07-31T11:05:43;5.88;;;1.70;;
38162;SDS011;23977;53.078;18.248;2023-07-31T11:10:38;5.32;;;1.50;;
38162;SDS011;23977;53.078;18.248;2023-07-31T11:13:04;5.45;;;1.60;;
38162;SDS011;23977;53.078;18.248;2023-07-31T11:15:31;4.60;;;1.60;;
38162;SDS011;23977;53.078;18.248;2023-07-31T11:17:56;5.47;;;1.73;;
38162;SDS011;23977;53.078;18.248;2023-07-31T11:20:25;4.00;;;1.50;;
38162;SDS011;23977;53.078;18.248;2023-07-31T11:22:51;7.95;;;2.10;;
38162;SDS011;23977;53.078;18.248;2023-07-31T11:25:18;4.90;;;1.70;;
38162;SDS011;23977;53.078;18.248;2023-07-31T11:27:43;9.40;;;2.03;;
38162;SDS011;23977;53.078;18.248;2023-07-31T11:30:10;10.00;;;1.88;;
38162;SDS011;23977;53.078;18.248;2023-07-31T11:32:36;8.98;;;2.22;;
38162;SDS011;23977;53.078;18.248;2023-07-31T11:35:03;7.63;;;1.80;;
38162;SDS011;23977;53.078;18.248;2023-07-31T11:37:40;6.40;;;1.90;;
38162;SDS011;23977;53.078;18.248;2023-07-31T11:40:08;4.78;;;1.55;;
38162;SDS011;23977;53.078;18.248;2023-07-31T11:42:34;6.30;;;1.67;;
38162;SDS011;23977;53.078;18.248;2023-07-31T11:45:04;3.75;;;1.40;;
38162;SDS011;23977;53.078;18.248;2023-07-31T11:47:34;6.45;;;1.80;;
38162;SDS011;23977;53.078;18.248;2023-07-31T11:50:01;5.47;;;1.60;;
38162;SDS011;23977;53.078;18.248;2023-07-31T11:52:28;6.40;;;1.60;;
38162;SDS011;23977;53.078;18.248;2023-07-31T11:54:57;10.90;;;1.90;;
38162;SDS011;23977;53.078;18.248;2023-07-31T11:57:24;8.60;;;1.70;;
38162;SDS011;23977;53.078;18.248;2023-07-31T11:59:50;7.50;;;1.90;;
38162;SDS011;23977;53.078;18.248;2023-07-31T12:02:17;5.82;;;1.67;;
38162;SDS011;23977;53.078;18.248;2023-07-31T12:04:44;7.18;;;2.00;;
38162;SDS011;23977;53.078;18.248;2023-07-31T12:07:11;6.60;;;1.67;;
38162;SDS011;23977;53.078;18.248;2023-07-31T12:09:38;6.70;;;1.70;;
38162;SDS011;23977;53.078;18.248;2023-07-31T12:12:07;4.65;;;1.50;;
38162;SDS011;23977;53.078;18.248;2023-07-31T12:14:33;6.10;;;1.73;;
38162;SDS011;23977;53.078;18.248;2023-07-31T12:17:00;4.57;;;1.60;;
38162;SDS011;23977;53.078;18.248;2023-07-31T12:19:32;5.15;;;1.80;;
38162;SDS011;23977;53.078;18.248;2023-07-31T12:21:59;5.25;;;1.63;;
38162;SDS011;23977;53.078;18.248;2023-07-31T12:24:26;4.47;;;1.52;;
38162;SDS011;23977;53.078;18.248;2023-07-31T12:26:52;6.38;;;1.48;;
38162;SDS011;23977;53.078;18.248;2023-07-31T12:29:18;3.97;;;1.40;;
38162;SDS011;23977;53.078;18.248;2023-07-31T12:31:43;5.95;;;1.50;;
38162;SDS011;23977;53.078;18.248;2023-07-31T12:34:16;7.50;;;1.70;;
38162;SDS011;23977;53.078;18.248;2023-07-31T12:36:43;9.55;;;2.05;;
38162;SDS011;23977;53.078;18.248;2023-07-31T12:39:09;6.82;;;1.60;;
38162;SDS011;23977;53.078;18.248;2023-07-31T12:41:35;4.10;;;1.80;;
38162;SDS011;23977;53.078;18.248;2023-07-31T12:44:01;9.23;;;2.00;;
38162;SDS011;23977;53.078;18.248;2023-07-31T12:46:28;18.60;;;3.42;;
38162;SDS011;23977;53.078;18.248;2023-07-31T12:48:54;34.05;;;4.45;;
38162;SDS011;23977;53.078;18.248;2023-07-31T12:51:20;17.17;;;2.35;;
38162;SDS011;23977;53.078;18.248;2023-07-31T12:53:46;7.88;;;2.10;;
38162;SDS011;23977;53.078;18.248;2023-07-31T12:56:12;8.13;;;1.60;;
38162;SDS011;23977;53.078;18.248;2023-07-31T12:58:38;6.75;;;1.73;;
38162;SDS011;23977;53.078;18.248;2023-07-31T13:01:03;5.88;;;1.50;;
38162;SDS011;23977;53.078;18.248;2023-07-31T13:03:29;4.70;;;1.30;;
38162;SDS011;23977;53.078;18.248;2023-07-31T13:05:55;5.50;;;1.25;;
38162;SDS011;23977;53.078;18.248;2023-07-31T13:08:21;5.72;;;1.50;;
38162;SDS011;23977;53.078;18.248;2023-07-31T13:10:46;5.22;;;1.20;;
38162;SDS011;23977;53.078;18.248;2023-07-31T13:13:12;5.40;;;1.40;;
38162;SDS011;23977;53.078;18.248;2023-07-31T13:15:38;2.92;;;1.27;;
38162;SDS011;23977;53.078;18.248;2023-07-31T13:18:04;4.57;;;1.48;;
38162;SDS011;23977;53.078;18.248;2023-07-31T13:20:30;2.72;;;1.35;;
38162;SDS011;23977;53.078;18.248;2023-07-31T13:22:56;2.47;;;1.20;;
38162;SDS011;23977;53.078;18.248;2023-07-31T13:25:21;3.80;;;1.33;;
38162;SDS011;23977;53.078;18.248;2023-07-31T13:27:47;3.22;;;1.40;;
38162;SDS011;23977;53.078;18.248;2023-07-31T13:30:13;2.30;;;1.13;;
38162;SDS011;23977;53.078;18.248;2023-07-31T13:32:38;2.60;;;1.30;;
38162;SDS011;23977;53.078;18.248;2023-07-31T13:35:07;2.60;;;1.20;;
38162;SDS011;23977;53.078;18.248;2023-07-31T13:37:34;2.67;;;1.30;;
38162;SDS011;23977;53.078;18.248;2023-07-31T13:40:00;4.93;;;1.58;;
38162;SDS011;23977;53.078;18.248;2023-07-31T13:42:26;4.00;;;1.60;;
38162;SDS011;23977;53.078;18.248;2023-07-31T13:44:53;2.90;;;1.33;;
38162;SDS011;23977;53.078;18.248;2023-07-31T13:47:22;4.05;;;1.40;;
38162;SDS011;23977;53.078;18.248;2023-07-31T13:49:47;3.97;;;1.52;;
38162;SDS011;23977;53.078;18.248;2023-07-31T13:52:13;2.75;;;1.33;;
38162;SDS011;23977;53.078;18.248;2023-07-31T13:54:38;4.68;;;1.40;;
38162;SDS011;23977;53.078;18.248;2023-07-31T13:57:04;3.45;;;1.48;;
38162;SDS011;23977;53.078;18.248;2023-07-31T13:59:30;3.35;;;1.50;;
38162;SDS011;23977;53.078;18.248;2023-07-31T14:01:56;3.03;;;1.20;;
38162;SDS011;23977;53.078;18.248;2023-07-31T14:04:22;5.65;;;1.30;;
38162;SDS011;23977;53.078;18.248;2023-07-31T14:06:48;4.05;;;1.42;;
38162;SDS011;23977;53.078;18.248;2023-07-31T14:09:15;4.70;;;1.65;;
38162;SDS011;23977;53.078;18.248;2023-07-31T14:11:41;2.70;;;1.20;;
38162;SDS011;23977;53.078;18.248;2023-07-31T14:14:06;3.58;;;1.20;;
38162;SDS011;23977;53.078;18.248;2023-07-31T14:16:34;2.42;;;1.15;;
38162;SDS011;23977;53.078;18.248;2023-07-31T14:19:00;2.75;;;1.08;;
38162;SDS011;23977;53.078;18.248;2023-07-31T14:21:26;2.15;;;1.20;;
38162;SDS011;23977;53.078;18.248;2023-07-31T14:23:51;3.60;;;1.27;;
38162;SDS011;23977;53.078;18.248;2023-07-31T14:26:17;4.05;;;1.30;;
38162;SDS011;23977;53.078;18.248;2023-07-31T14:28:42;3.88;;;1.25;;
38162;SDS011;23977;53.078;18.248;2023-07-31T14:31:09;2.55;;;0.95;;
38162;SDS011;23977;53.078;18.248;2023-07-31T14:33:34;3.97;;;1.30;;
38162;SDS011;23977;53.078;18.248;2023-07-31T14:36:00;3.38;;;1.13;;
38162;SDS011;23977;53.078;18.248;2023-07-31T14:38:26;3.78;;;1.00;;
38162;SDS011;23977;53.078;18.248;2023-07-31T14:40:52;2.55;;;1.30;;